Time;durP1;ratioP1;P1;durP2;ratioP2;P2;SDS_P1;SDS_P2;PMS_P1;PMS_P2;Temp;Humidity;BMP_temperature;BMP_pressure;BME280_temperature;BME280_humidity;BME280_pressure;Samples;Min_cycle;Max_cycle;Signal;HPM_P1;HPM_P2
2022/01/06 00:01:10;;;;;;;8.45;2.03;;;7.10;77.90;;;;;;4979707;28;20045;-88
2022/01/06 00:03:36;;;;;;;8.25;2.05;;;7.00;77.60;;;;;;4982764;28;20073;-89
2022/01/06 00:06:06;;;;;;;8.23;2.13;;;7.10;77.80;;;;;;4978413;28;20069;-89
2022/01/06 00:08:34;;;;;;;10.60;2.15;;;7.10;77.70;;;;;;4983508;28;20057;-88
2022/01/06 00:10:59;;;;;;;6.97;1.80;;;7.10;78.40;;;;;;5002109;28;20412;-88
2022/01/06 00:13:43;;;;;;;6.68;1.85;;;7.10;77.60;;;;;;4985166;28;20062;-87
2022/01/06 00:16:33;;;;;;;7.65;2.00;;;7.10;77.70;;;;;;4987358;28;20034;-87
2022/01/06 00:24:09;;;;;;;6.03;1.73;;;7.20;77.50;;;;;;4989928;28;20478;-89
2022/01/06 00:26:35;;;;;;;8.65;1.98;;;7.20;77.40;;;;;;4992345;28;20034;-90
2022/01/06 00:29:00;;;;;;;7.88;1.98;;;7.10;77.40;;;;;;4992706;28;20018;-89
2022/01/06 00:31:26;;;;;;;9.48;2.05;;;7.10;77.30;;;;;;4991286;28;20034;-89
2022/01/06 00:33:51;;;;;;;10.25;2.05;;;7.10;77.40;;;;;;4993364;28;20029;-87
2022/01/06 00:36:17;;;;;;;9.77;2.00;;;7.00;77.40;;;;;;4993624;28;20703;-88
2022/01/06 00:38:42;;;;;;;10.63;1.95;;;7.00;77.30;;;;;;4989807;28;20415;-89
2022/01/06 00:41:08;;;;;;;8.48;2.30;;;7.00;77.40;;;;;;4990425;28;20038;-89
2022/01/06 00:43:33;;;;;;;7.95;2.17;;;7.10;77.30;;;;;;4992089;28;20108;-89
2022/01/06 00:45:59;;;;;;;9.27;2.00;;;7.10;77.20;;;;;;4992254;28;20484;-88
2022/01/06 00:48:24;;;;;;;4.45;1.60;;;7.10;77.30;;;;;;4989545;28;20027;-88
2022/01/06 00:50:50;;;;;;;4.80;1.50;;;7.10;77.10;;;;;;4993822;28;20538;-87
2022/01/06 00:53:15;;;;;;;4.65;1.67;;;7.10;77.20;;;;;;4991707;28;20048;-89
2022/01/06 00:55:41;;;;;;;9.77;2.00;;;7.10;77.20;;;;;;4994909;28;20034;-91
2022/01/06 00:58:07;;;;;;;7.20;1.80;;;7.00;77.20;;;;;;4995813;28;20755;-91
2022/01/06 01:00:38;;;;;;;6.03;2.00;;;7.00;77.10;;;;;;4992566;28;20465;-90
2022/01/06 01:03:10;;;;;;;9.93;1.90;;;7.00;77.00;;;;;;5001088;28;20022;-87
2022/01/06 01:05:37;;;;;;;10.25;1.98;;;7.00;77.10;;;;;;4992172;28;20041;-87
2022/01/06 01:08:03;;;;;;;6.63;2.00;;;6.90;77.00;;;;;;4997756;28;20109;-86
2022/01/06 01:10:29;;;;;;;8.00;1.75;;;6.80;76.90;;;;;;5002166;28;20128;-86
2022/01/06 01:12:55;;;;;;;6.40;1.90;;;6.80;77.10;;;;;;4994914;28;20125;-85
2022/01/06 01:15:21;;;;;;;4.70;1.52;;;6.80;77.20;;;;;;5001388;28;20519;-85
2022/01/06 01:17:52;;;;;;;5.68;1.90;;;6.80;77.40;;;;;;4991046;28;20382;-85
2022/01/06 01:20:19;;;;;;;5.95;1.67;;;6.80;77.40;;;;;;4996908;28;20032;-85
2022/01/06 01:22:45;;;;;;;6.20;1.63;;;6.80;77.30;;;;;;5001647;28;20026;-85
2022/01/06 01:25:11;;;;;;;5.93;1.63;;;6.80;77.30;;;;;;4993946;28;20034;-86
2022/01/06 01:27:41;;;;;;;6.18;1.80;;;6.80;77.10;;;;;;4990929;28;20034;-85
2022/01/06 01:30:13;;;;;;;8.73;1.83;;;6.80;77.20;;;;;;4995277;28;20025;-86
2022/01/06 01:32:45;;;;;;;5.28;1.50;;;6.80;77.10;;;;;;4999576;28;20097;-86
2022/01/06 01:35:10;;;;;;;4.95;1.67;;;6.90;77.30;;;;;;4991237;28;20026;-87
2022/01/06 01:37:37;;;;;;;6.50;1.85;;;6.90;77.20;;;;;;4996726;28;20121;-87
2022/01/06 01:40:05;;;;;;;7.07;1.55;;;6.90;77.00;;;;;;4987015;28;20026;-87
2022/01/06 01:42:30;;;;;;;5.10;1.75;;;6.90;77.00;;;;;;4992611;28;20116;-87
2022/01/06 01:44:56;;;;;;;5.72;1.42;;;6.90;77.00;;;;;;4989049;28;20159;-86
2022/01/06 01:47:45;;;;;;;7.78;1.95;;;6.90;77.00;;;;;;4999863;28;20080;-86
2022/01/06 01:50:13;;;;;;;6.28;1.70;;;6.80;76.90;;;;;;4998271;28;20026;-89
2022/01/06 01:52:51;;;;;;;6.57;1.70;;;6.80;76.90;;;;;;4999205;28;20030;-88
2022/01/06 01:55:22;;;;;;;7.13;1.73;;;6.80;76.80;;;;;;4985100;28;20034;-86
2022/01/06 01:57:49;;;;;;;5.32;1.70;;;6.70;76.80;;;;;;4999401;28;20124;-86
2022/01/06 02:00:17;;;;;;;6.07;2.05;;;6.60;76.90;;;;;;4996783;28;20044;-88
2022/01/06 02:02:42;;;;;;;5.55;1.88;;;6.60;77.10;;;;;;4993806;28;20038;-88
2022/01/06 02:05:09;;;;;;;6.75;1.75;;;6.60;77.10;;;;;;4993126;28;20038;-89
2022/01/06 02:07:39;;;;;;;7.40;1.60;;;6.60;77.00;;;;;;4998133;28;20032;-90
2022/01/06 02:10:05;;;;;;;5.90;1.60;;;6.60;77.00;;;;;;4991714;28;20223;-89
2022/01/06 02:12:35;;;;;;;5.22;1.40;;;6.60;77.00;;;;;;4995486;28;20477;-88
2022/01/06 02:15:02;;;;;;;4.63;1.70;;;6.60;77.00;;;;;;4997251;28;20022;-89
2022/01/06 02:17:28;;;;;;;5.40;1.60;;;6.60;77.10;;;;;;4994423;28;20196;-89
2022/01/06 02:19:54;;;;;;;5.18;1.40;;;6.70;77.20;;;;;;4994104;28;20521;-89
2022/01/06 02:22:20;;;;;;;5.93;1.63;;;6.80;77.00;;;;;;5003399;28;20072;-89
2022/01/06 02:24:45;;;;;;;6.88;1.88;;;6.80;76.80;;;;;;4993746;28;20022;-89
2022/01/06 02:27:11;;;;;;;8.05;1.65;;;6.80;76.80;;;;;;4995956;28;20037;-88
2022/01/06 02:29:37;;;;;;;5.13;1.33;;;6.80;76.60;;;;;;4993242;28;20469;-89
2022/01/06 02:32:08;;;;;;;4.97;1.50;;;6.80;76.70;;;;;;4990970;28;20030;-89
2022/01/06 02:34:33;;;;;;;5.47;1.58;;;6.80;76.70;;;;;;4993647;28;20030;-88
2022/01/06 02:37:00;;;;;;;6.68;1.48;;;6.80;76.70;;;;;;4998254;28;20081;-88
2022/01/06 02:39:26;;;;;;;5.88;1.52;;;6.90;76.60;;;;;;4997499;28;20042;-90
2022/01/06 02:41:51;;;;;;;5.68;1.45;;;6.90;76.50;;;;;;5003212;28;20484;-90
2022/01/06 02:44:20;;;;;;;7.03;1.48;;;6.80;76.40;;;;;;5003905;28;20021;-90
2022/01/06 02:46:45;;;;;;;5.70;1.48;;;6.80;76.50;;;;;;4991240;28;20030;-92
2022/01/06 02:49:12;;;;;;;5.35;1.77;;;6.80;76.60;;;;;;4996484;28;20522;-91
2022/01/06 02:51:40;;;;;;;8.98;1.75;;;6.80;76.60;;;;;;5015214;28;20038;-91
2022/01/06 02:54:06;;;;;;;5.45;1.40;;;6.80;76.50;;;;;;4995638;28;20018;-90
2022/01/06 02:56:32;;;;;;;5.97;1.60;;;6.80;76.40;;;;;;4993764;28;20041;-90
2022/01/06 02:58:59;;;;;;;8.40;1.75;;;6.90;76.50;;;;;;4998539;28;20011;-90
2022/01/06 03:01:24;;;;;;;4.68;1.67;;;6.80;76.30;;;;;;4998273;28;20077;-90
2022/01/06 03:03:50;;;;;;;6.18;1.48;;;6.80;76.40;;;;;;4998932;28;21223;-90
2022/01/06 03:06:15;;;;;;;6.85;1.98;;;6.80;76.50;;;;;;4992488;28;20493;-90
2022/01/06 03:08:41;;;;;;;7.55;1.48;;;6.70;76.30;;;;;;4998461;28;20054;-86
2022/01/06 03:11:07;;;;;;;8.05;2.00;;;6.60;76.30;;;;;;4994917;28;20042;-84
2022/01/06 03:13:33;;;;;;;7.10;1.50;;;6.60;76.50;;;;;;4992287;28;20022;-85
2022/01/06 03:16:01;;;;;;;8.23;1.80;;;6.60;76.70;;;;;;4999911;28;20116;-85
2022/01/06 03:18:27;;;;;;;7.30;1.80;;;6.60;76.70;;;;;;4986819;28;20216;-86
2022/01/06 03:20:52;;;;;;;5.25;1.48;;;6.60;76.70;;;;;;4993273;28;20030;-87
2022/01/06 03:23:18;;;;;;;6.97;1.80;;;6.60;76.70;;;;;;5000575;28;20024;-88
2022/01/06 03:25:44;;;;;;;4.50;1.30;;;6.60;76.50;;;;;;5000073;28;20022;-88
2022/01/06 03:28:10;;;;;;;6.03;1.98;;;6.60;76.70;;;;;;4999005;28;20036;-88
2022/01/06 03:30:35;;;;;;;4.22;1.65;;;6.60;76.70;;;;;;4994304;28;20058;-91
2022/01/06 03:33:01;;;;;;;3.67;1.40;;;6.60;76.70;;;;;;5003971;28;20515;-92
2022/01/06 03:35:27;;;;;;;5.45;1.60;;;6.60;76.60;;;;;;4990963;28;20098;-88
2022/01/06 03:37:53;;;;;;;5.07;1.45;;;6.50;76.50;;;;;;5000301;28;20087;-89
2022/01/06 03:40:19;;;;;;;6.65;1.75;;;6.50;76.70;;;;;;4992622;28;20113;-87
2022/01/06 03:42:46;;;;;;;6.13;1.58;;;6.50;76.80;;;;;;4998515;28;20023;-89
2022/01/06 03:45:14;;;;;;;4.65;1.45;;;6.50;76.60;;;;;;4996932;28;20031;-88
2022/01/06 03:47:40;;;;;;;4.35;1.40;;;6.50;76.70;;;;;;4997507;28;20061;-92
2022/01/06 03:50:07;;;;;;;4.07;1.25;;;6.50;76.70;;;;;;4993658;28;20040;-90
2022/01/06 03:52:33;;;;;;;5.25;1.42;;;6.50;76.60;;;;;;4997187;28;20030;-90
2022/01/06 03:54:58;;;;;;;4.95;1.38;;;6.50;76.60;;;;;;4991510;28;20076;-90
2022/01/06 03:57:24;;;;;;;5.55;1.58;;;6.50;76.70;;;;;;4998224;28;20042;-92
2022/01/06 03:59:49;;;;;;;6.65;1.60;;;6.50;76.70;;;;;;5003467;28;20307;-91
2022/01/06 04:02:15;;;;;;;5.57;1.38;;;6.50;76.60;;;;;;4995611;28;20105;-90
2022/01/06 04:04:40;;;;;;;4.07;1.33;;;6.40;76.40;;;;;;4998548;28;20053;-90
2022/01/06 04:07:06;;;;;;;8.23;1.52;;;6.40;77.10;;;;;;4997349;28;20046;-85
2022/01/06 04:09:32;;;;;;;6.35;1.63;;;6.40;76.60;;;;;;4994899;28;20039;-86
2022/01/06 04:11:57;;;;;;;4.38;1.40;;;6.40;76.70;;;;;;4997741;28;20030;-86
2022/01/06 04:14:23;;;;;;;10.13;1.80;;;6.40;76.60;;;;;;4995090;28;20870;-87
2022/01/06 04:16:48;;;;;;;7.25;1.77;;;6.50;76.70;;;;;;4990584;28;20034;-85
2022/01/06 04:19:14;;;;;;;4.47;1.48;;;6.50;76.70;;;;;;4990544;28;20034;-86
2022/01/06 04:21:40;;;;;;;4.40;1.50;;;6.60;76.70;;;;;;4997389;28;20034;-87
2022/01/06 04:24:05;;;;;;;5.15;1.48;;;6.60;76.50;;;;;;5002273;28;20145;-88
2022/01/06 04:26:31;;;;;;;4.55;1.30;;;6.60;76.20;;;;;;4989314;28;20030;-88
2022/01/06 04:28:56;;;;;;;5.53;1.40;;;6.60;76.30;;;;;;4993305;28;20040;-87
2022/01/06 04:31:22;;;;;;;7.13;1.50;;;6.60;76.40;;;;;;4993715;28;20515;-86
2022/01/06 04:33:47;;;;;;;8.18;1.77;;;6.50;76.20;;;;;;4998129;28;20042;-88
2022/01/06 04:36:13;;;;;;;6.90;1.70;;;6.50;76.30;;;;;;4992791;28;20019;-87
2022/01/06 04:38:39;;;;;;;5.55;1.55;;;6.50;76.40;;;;;;4997332;28;20026;-87
2022/01/06 04:41:04;;;;;;;5.88;1.90;;;6.50;76.30;;;;;;5003024;28;20026;-88
2022/01/06 04:43:30;;;;;;;7.03;1.80;;;6.50;76.20;;;;;;4997022;28;20117;-87
2022/01/06 04:45:56;;;;;;;4.70;1.30;;;6.50;76.40;;;;;;4999922;28;20485;-90
2022/01/06 04:48:22;;;;;;;5.03;1.52;;;6.50;76.20;;;;;;4988838;28;20028;-88
2022/01/06 04:50:47;;;;;;;4.63;1.45;;;6.40;76.20;;;;;;4997824;28;20516;-88
2022/01/06 04:53:13;;;;;;;7.07;1.40;;;6.40;76.30;;;;;;4990715;28;20050;-88
2022/01/06 04:55:39;;;;;;;6.85;1.33;;;6.40;76.40;;;;;;5001155;28;20145;-88
2022/01/06 04:58:04;;;;;;;4.55;1.60;;;6.40;76.30;;;;;;4992527;28;20453;-88
2022/01/06 05:00:30;;;;;;;5.30;1.50;;;6.50;76.30;;;;;;4985707;28;20022;-87
2022/01/06 05:02:55;;;;;;;5.05;1.73;;;6.50;76.10;;;;;;4996787;28;20089;-89
2022/01/06 05:05:21;;;;;;;4.90;1.40;;;6.50;76.10;;;;;;4996361;28;20456;-88
2022/01/06 05:07:46;;;;;;;3.67;1.40;;;6.50;76.10;;;;;;5001894;28;20049;-87
2022/01/06 05:10:12;;;;;;;6.28;1.55;;;6.50;76.10;;;;;;4998568;28;20022;-88
2022/01/06 05:12:45;;;;;;;5.78;1.50;;;6.50;76.70;;;;;;5007041;28;20047;-88
2022/01/06 05:15:12;;;;;;;4.47;1.30;;;6.40;76.00;;;;;;5003162;28;20022;-89
2022/01/06 05:17:38;;;;;;;6.30;1.45;;;6.40;76.00;;;;;;4986659;28;20053;-88
2022/01/06 05:20:05;;;;;;;5.70;1.40;;;6.40;76.00;;;;;;4999202;28;20049;-83
2022/01/06 05:22:32;;;;;;;5.43;1.50;;;6.40;76.00;;;;;;5006885;28;20037;-86
2022/01/06 05:24:58;;;;;;;4.43;1.33;;;6.40;75.90;;;;;;4999209;28;20023;-87
2022/01/06 05:27:24;;;;;;;4.90;1.50;;;6.30;75.90;;;;;;5000537;28;20033;-90
2022/01/06 05:29:50;;;;;;;4.30;1.30;;;6.20;76.10;;;;;;5001217;28;20034;-91
2022/01/06 05:32:15;;;;;;;5.25;1.40;;;6.30;76.40;;;;;;5001451;28;20401;-87
2022/01/06 05:34:41;;;;;;;5.53;1.40;;;6.30;76.30;;;;;;4987888;28;20029;-87
2022/01/06 05:37:06;;;;;;;4.65;1.40;;;6.30;76.20;;;;;;4993354;28;20461;-88
2022/01/06 05:39:32;;;;;;;5.63;1.60;;;6.40;76.40;;;;;;4993767;28;20019;-90
2022/01/06 05:41:58;;;;;;;4.85;1.60;;;6.40;76.30;;;;;;4993443;28;20026;-88
2022/01/06 05:44:25;;;;;;;3.30;1.30;;;6.40;76.80;;;;;;4992788;28;20034;-88
2022/01/06 05:46:50;;;;;;;6.15;1.20;;;6.40;76.20;;;;;;5004974;28;20053;-87
2022/01/06 05:49:16;;;;;;;4.78;1.30;;;6.40;76.20;;;;;;4993283;28;20102;-87
2022/01/06 05:51:42;;;;;;;5.63;1.38;;;6.40;76.20;;;;;;4993490;28;20034;-87
2022/01/06 05:54:07;;;;;;;4.22;1.27;;;6.40;76.10;;;;;;4992308;28;20031;-86
2022/01/06 05:56:33;;;;;;;3.92;1.63;;;6.30;76.10;;;;;;4995382;28;20041;-86
2022/01/06 05:58:58;;;;;;;4.72;1.45;;;6.40;76.20;;;;;;4997339;28;20040;-85
2022/01/06 06:01:24;;;;;;;4.38;1.27;;;6.40;76.00;;;;;;4997968;28;20037;-88
2022/01/06 06:03:49;;;;;;;3.78;1.25;;;6.30;76.00;;;;;;4992761;28;20042;-86
2022/01/06 06:06:15;;;;;;;3.95;1.25;;;6.40;76.10;;;;;;4994576;28;20432;-84
2022/01/06 06:08:41;;;;;;;6.88;1.48;;;6.40;76.00;;;;;;4994607;28;20102;-84
2022/01/06 06:11:07;;;;;;;6.68;1.52;;;6.30;75.80;;;;;;4999942;28;20117;-85
2022/01/06 06:13:32;;;;;;;5.03;1.55;;;6.30;75.80;;;;;;4991437;28;20375;-86
2022/01/06 06:15:58;;;;;;;3.88;1.30;;;6.30;75.60;;;;;;4991941;28;20018;-86
2022/01/06 06:18:23;;;;;;;3.13;1.25;;;6.30;75.50;;;;;;4988471;28;20034;-85
2022/01/06 06:20:49;;;;;;;4.85;1.50;;;6.20;75.50;;;;;;4996578;28;20030;-86
2022/01/06 06:23:15;;;;;;;4.63;1.30;;;6.20;75.50;;;;;;4994161;28;20045;-85
2022/01/06 06:25:40;;;;;;;4.90;1.30;;;6.20;75.60;;;;;;4998531;28;20022;-83
2022/01/06 06:28:06;;;;;;;3.78;1.42;;;6.20;75.60;;;;;;4995681;28;20029;-84
2022/01/06 06:30:31;;;;;;;6.18;1.45;;;6.20;75.60;;;;;;4995073;28;20038;-85
2022/01/06 06:32:57;;;;;;;5.60;1.67;;;6.20;75.50;;;;;;4990082;28;20512;-83
2022/01/06 06:35:23;;;;;;;3.63;1.30;;;6.10;75.50;;;;;;4994240;28;20027;-88
2022/01/06 06:37:48;;;;;;;5.63;1.60;;;6.10;75.60;;;;;;4999551;28;20027;-86
2022/01/06 06:40:14;;;;;;;9.10;2.28;;;6.10;75.60;;;;;;4991772;28;20286;-87
2022/01/06 06:42:40;;;;;;;6.03;1.25;;;6.10;75.50;;;;;;4984230;28;20096;-87
2022/01/06 06:45:08;;;;;;;4.20;1.20;;;6.20;75.70;;;;;;4980679;28;20026;-88
2022/01/06 06:47:33;;;;;;;2.40;1.30;;;6.10;75.50;;;;;;4984560;28;20165;-89
2022/01/06 06:49:59;;;;;;;5.47;1.52;;;6.20;75.50;;;;;;4984218;28;20121;-90
2022/01/06 06:52:26;;;;;;;5.85;1.30;;;6.20;75.60;;;;;;4986828;28;20125;-91
2022/01/06 06:54:53;;;;;;;5.47;1.40;;;6.20;75.50;;;;;;4983347;28;20027;-92
2022/01/06 06:57:20;;;;;;;6.60;1.40;;;6.10;75.50;;;;;;4985443;28;20362;-92
2022/01/06 06:59:45;;;;;;;4.38;1.30;;;6.10;75.50;;;;;;4983859;28;20033;-89
2022/01/06 07:02:11;;;;;;;5.32;1.42;;;6.20;75.60;;;;;;4986561;28;20034;-88
2022/01/06 07:04:36;;;;;;;3.58;1.40;;;6.20;75.60;;;;;;4983177;28;20026;-89
2022/01/06 07:07:02;;;;;;;3.45;1.40;;;6.30;75.70;;;;;;4987418;28;20038;-79
2022/01/06 07:09:27;;;;;;;6.50;1.40;;;6.20;75.40;;;;;;4982623;28;20026;-87
2022/01/06 07:11:53;;;;;;;6.15;1.50;;;6.10;75.20;;;;;;4988291;28;20336;-87
2022/01/06 07:14:18;;;;;;;5.03;1.67;;;6.00;75.20;;;;;;4982823;28;20450;-87
2022/01/06 07:16:44;;;;;;;6.88;1.50;;;5.70;75.40;;;;;;4982104;28;20556;-87
2022/01/06 07:19:09;;;;;;;6.70;1.42;;;5.60;75.80;;;;;;4981326;28;20034;-87
2022/01/06 07:21:35;;;;;;;6.32;1.48;;;5.50;76.10;;;;;;4982283;28;20369;-83
2022/01/06 07:24:00;;;;;;;7.60;1.50;;;5.40;76.30;;;;;;4980210;28;20026;-83
2022/01/06 07:26:26;;;;;;;6.78;1.50;;;5.30;76.60;;;;;;4985808;28;20034;-84
2022/01/06 07:28:51;;;;;;;5.05;1.70;;;5.30;76.90;;;;;;4981868;28;20029;-84
2022/01/06 07:31:17;;;;;;;5.53;1.80;;;5.20;77.00;;;;;;4985397;28;20026;-84
2022/01/06 07:33:42;;;;;;;7.88;1.48;;;5.20;77.10;;;;;;4980999;28;20098;-83
2022/01/06 07:36:08;;;;;;;5.07;1.50;;;5.20;77.10;;;;;;4983916;28;20026;-84
2022/01/06 07:38:34;;;;;;;5.35;1.40;;;5.20;77.10;;;;;;4983630;28;20014;-84
2022/01/06 07:40:59;;;;;;;5.75;1.50;;;5.10;77.10;;;;;;4986398;28;20022;-83
2022/01/06 07:43:25;;;;;;;7.10;1.70;;;5.10;77.10;;;;;;4980592;28;20023;-84
2022/01/06 07:45:50;;;;;;;7.88;1.67;;;5.00;77.10;;;;;;4983141;28;20478;-84
2022/01/06 07:48:19;;;;;;;6.85;1.63;;;5.00;77.30;;;;;;4989723;28;20443;-83
2022/01/06 07:50:46;;;;;;;5.50;1.60;;;4.90;77.40;;;;;;4988591;28;20122;-83
2022/01/06 07:53:12;;;;;;;5.38;1.55;;;4.90;77.40;;;;;;4996281;28;20451;-81
2022/01/06 07:55:38;;;;;;;5.82;1.55;;;4.90;77.50;;;;;;4992712;28;20022;-82
2022/01/06 07:58:04;;;;;;;6.60;1.77;;;4.90;77.50;;;;;;4982390;28;20094;-82
2022/01/06 08:00:30;;;;;;;6.78;1.65;;;4.80;77.50;;;;;;4987461;28;20023;-87
2022/01/06 08:02:56;;;;;;;7.60;1.45;;;4.80;77.60;;;;;;4981151;28;20118;-81
2022/01/06 08:05:25;;;;;;;5.25;1.60;;;4.80;77.70;;;;;;4988885;28;20553;-83
2022/01/06 08:07:51;;;;;;;3.55;1.40;;;4.80;77.60;;;;;;4986208;28;20068;-83
2022/01/06 08:10:17;;;;;;;6.40;1.55;;;4.80;77.60;;;;;;4984829;28;20031;-82
2022/01/06 08:12:43;;;;;;;5.15;1.70;;;4.80;77.60;;;;;;4986528;28;20049;-85
2022/01/06 08:15:09;;;;;;;6.47;1.60;;;4.70;77.70;;;;;;4989971;28;20674;-87
2022/01/06 08:17:36;;;;;;;4.38;1.40;;;4.70;77.70;;;;;;4991199;28;20031;-86
2022/01/06 08:20:03;;;;;;;3.88;1.60;;;4.70;77.80;;;;;;4981839;28;20509;-83
2022/01/06 08:22:29;;;;;;;6.18;1.80;;;4.70;77.80;;;;;;4998142;28;20085;-81
2022/01/06 08:24:55;;;;;;;4.55;1.50;;;4.70;77.80;;;;;;4980128;28;20507;-81
2022/01/06 08:27:23;;;;;;;5.40;1.88;;;4.70;77.60;;;;;;4986797;28;20022;-80
2022/01/06 08:29:50;;;;;;;4.75;1.60;;;4.70;77.70;;;;;;4987610;28;20019;-82
2022/01/06 08:32:15;;;;;;;6.18;1.90;;;4.60;78.00;;;;;;4997501;28;20526;-84
2022/01/06 08:34:41;;;;;;;6.32;1.70;;;4.60;78.10;;;;;;4996917;28;20030;-84
2022/01/06 08:37:06;;;;;;;6.50;1.60;;;4.60;78.10;;;;;;4992945;28;20041;-84
2022/01/06 08:39:32;;;;;;;5.57;1.73;;;4.70;78.10;;;;;;4993983;28;20041;-82
2022/01/06 08:41:57;;;;;;;4.28;1.95;;;4.70;78.10;;;;;;4994352;28;20034;-85
2022/01/06 08:44:23;;;;;;;4.68;1.80;;;4.70;78.00;;;;;;4991059;28;20388;-83
2022/01/06 08:46:49;;;;;;;5.68;2.17;;;4.70;78.10;;;;;;4994902;28;20065;-81
2022/01/06 08:49:15;;;;;;;5.88;1.83;;;4.70;78.10;;;;;;4986705;28;20034;-82
2022/01/06 08:51:42;;;;;;;6.93;1.77;;;4.70;78.00;;;;;;4993544;28;20204;-83
2022/01/06 08:54:08;;;;;;;7.72;2.63;;;4.80;78.10;;;;;;4992054;28;20030;-85
2022/01/06 08:56:34;;;;;;;10.35;2.55;;;4.80;78.00;;;;;;4987720;28;20022;-88
2022/01/06 08:59:00;;;;;;;7.47;2.03;;;4.80;78.10;;;;;;4987995;28;20017;-83
2022/01/06 09:01:25;;;;;;;7.40;1.95;;;4.80;78.10;;;;;;4989783;28;20088;-84
2022/01/06 09:03:51;;;;;;;6.15;1.80;;;4.90;78.20;;;;;;4989045;28;20021;-81
2022/01/06 09:06:17;;;;;;;6.20;1.80;;;4.90;78.20;;;;;;4991308;28;20495;-81
2022/01/06 09:08:42;;;;;;;6.82;1.80;;;4.90;78.20;;;;;;4992027;28;20030;-82
2022/01/06 09:11:08;;;;;;;7.15;2.22;;;4.90;78.30;;;;;;4992766;28;20455;-83
2022/01/06 09:13:34;;;;;;;6.00;2.10;;;5.00;78.30;;;;;;4989907;28;20044;-83
2022/01/06 09:15:59;;;;;;;7.28;2.15;;;5.00;78.40;;;;;;4990234;28;20070;-82
2022/01/06 09:18:25;;;;;;;6.47;2.50;;;5.00;78.30;;;;;;4984634;28;20123;-81
2022/01/06 09:20:50;;;;;;;7.97;2.10;;;5.00;78.30;;;;;;4985949;28;20538;-82
2022/01/06 09:23:16;;;;;;;7.82;2.15;;;5.00;78.30;;;;;;4989553;28;20038;-82
2022/01/06 09:25:43;;;;;;;5.75;2.17;;;5.00;78.40;;;;;;4988301;28;20031;-83
2022/01/06 09:28:09;;;;;;;6.53;2.30;;;5.00;78.40;;;;;;4988288;28;20027;-83
2022/01/06 09:30:36;;;;;;;5.25;1.75;;;5.00;78.40;;;;;;4989253;28;20022;-84
2022/01/06 09:33:02;;;;;;;5.65;2.20;;;5.00;78.40;;;;;;4991027;28;20042;-88
2022/01/06 09:35:28;;;;;;;6.63;2.20;;;5.00;78.50;;;;;;4990388;28;20121;-83
2022/01/06 09:37:54;;;;;;;5.15;2.20;;;5.10;78.80;;;;;;4987851;28;20439;-88
2022/01/06 09:40:19;;;;;;;5.20;2.30;;;5.10;78.80;;;;;;4987232;28;20545;-81
2022/01/06 09:42:45;;;;;;;7.05;2.28;;;5.20;78.90;;;;;;4989844;28;20399;-81
2022/01/06 09:45:11;;;;;;;8.32;2.55;;;5.20;79.40;;;;;;4981584;28;20031;-82
2022/01/06 09:47:37;;;;;;;7.65;2.65;;;5.20;78.80;;;;;;4987836;28;20416;-90
2022/01/06 09:50:05;;;;;;;8.07;2.75;;;5.20;78.80;;;;;;4988376;28;20024;-83
2022/01/06 09:52:33;;;;;;;4.88;2.40;;;5.30;78.90;;;;;;4987866;28;20038;-84
2022/01/06 09:54:59;;;;;;;9.40;3.40;;;5.30;78.90;;;;;;4989226;28;20026;-84
2022/01/06 09:57:24;;;;;;;8.98;3.90;;;5.30;78.90;;;;;;4986558;28;20030;-82
2022/01/06 09:59:50;;;;;;;14.23;4.82;;;5.30;79.10;;;;;;4993848;28;20027;-82
2022/01/06 10:02:19;;;;;;;13.93;6.10;;;5.30;79.20;;;;;;4988497;28;20047;-87
2022/01/06 10:04:57;;;;;;;13.07;6.40;;;5.30;79.20;;;;;;4988014;28;20554;-90
2022/01/06 10:07:23;;;;;;;12.63;6.65;;;5.40;79.20;;;;;;5003326;28;20456;-90
2022/01/06 10:09:50;;;;;;;17.95;8.77;;;5.30;79.10;;;;;;4988796;28;20102;-89
2022/01/06 10:12:16;;;;;;;17.25;7.88;;;5.40;79.10;;;;;;4988349;28;20031;-90
2022/01/06 10:14:46;;;;;;;14.85;6.40;;;5.40;79.30;;;;;;4988238;28;20072;-91
2022/01/06 10:17:28;;;;;;;12.93;5.68;;;5.40;79.30;;;;;;4975754;28;20041;-90
2022/01/06 10:19:54;;;;;;;10.70;5.00;;;5.40;79.30;;;;;;4975975;28;20018;-89
2022/01/06 10:22:21;;;;;;;8.18;4.03;;;5.50;79.20;;;;;;4987641;28;20420;-86
2022/01/06 10:24:48;;;;;;;6.72;3.35;;;5.50;79.20;;;;;;4983230;28;20062;-89
2022/01/06 10:27:16;;;;;;;7.07;3.42;;;5.60;79.20;;;;;;4975238;28;20042;-85
2022/01/06 10:29:47;;;;;;;10.48;3.50;;;5.60;79.10;;;;;;4981700;28;20027;-83
2022/01/06 10:32:21;;;;;;;7.57;2.97;;;5.60;79.10;;;;;;4975371;28;20081;-85
2022/01/06 10:34:52;;;;;;;8.55;3.20;;;5.70;79.10;;;;;;4985456;28;20022;-87
2022/01/06 10:37:26;;;;;;;7.53;3.00;;;5.60;79.10;;;;;;4983236;28;20126;-86
2022/01/06 10:39:58;;;;;;;5.35;2.08;;;5.70;79.20;;;;;;4976640;28;20034;-87
2022/01/06 10:42:29;;;;;;;11.32;3.08;;;5.70;79.20;;;;;;4984001;28;20062;-88
2022/01/06 10:45:00;;;;;;;8.35;2.53;;;5.70;79.10;;;;;;4979285;28;20029;-83
2022/01/06 10:47:47;;;;;;;9.25;3.40;;;5.70;79.30;;;;;;4986681;28;20034;-89
2022/01/06 10:50:15;;;;;;;8.27;2.90;;;5.70;79.20;;;;;;4985111;28;20031;-88
2022/01/06 10:52:56;;;;;;;7.45;2.50;;;5.70;79.20;;;;;;4998146;28;20641;-87
2022/01/06 10:55:28;;;;;;;6.55;2.17;;;5.80;79.20;;;;;;4984749;28;20242;-91
2022/01/06 10:58:04;;;;;;;8.15;2.40;;;5.80;79.20;;;;;;4982668;28;20081;-90
2022/01/06 11:00:39;;;;;;;6.13;2.20;;;5.90;79.20;;;;;;4993919;28;20068;-89
2022/01/06 11:03:14;;;;;;;6.10;2.08;;;6.00;79.10;;;;;;5011502;28;20572;-91
2022/01/06 11:05:51;;;;;;;5.30;2.33;;;6.00;79.00;;;;;;4991285;28;20374;-88
2022/01/06 11:08:25;;;;;;;9.18;2.53;;;6.10;79.00;;;;;;4994144;28;20030;-84
2022/01/06 11:13:38;;;;;;;9.63;3.08;;;6.10;78.90;;;;;;4982276;28;20054;-89
2022/01/06 11:16:05;;;;;;;8.10;2.85;;;6.10;78.90;;;;;;4984517;28;20049;-90
2022/01/06 11:18:34;;;;;;;7.55;2.88;;;6.20;78.90;;;;;;4979705;28;20031;-86
2022/01/06 11:21:08;;;;;;;7.72;2.45;;;6.20;78.90;;;;;;4997666;28;20101;-87
2022/01/06 11:23:34;;;;;;;6.45;2.30;;;6.20;79.00;;;;;;4999526;28;20042;-90
2022/01/06 11:26:12;;;;;;;9.00;2.80;;;6.20;79.00;;;;;;4984477;28;20089;-91
2022/01/06 11:28:39;;;;;;;6.70;3.05;;;6.10;79.00;;;;;;4980927;28;20031;-85
2022/01/06 11:31:29;;;;;;;8.07;2.83;;;6.20;79.00;;;;;;4984620;28;20058;-85
2022/01/06 11:33:56;;;;;;;8.85;2.38;;;6.30;79.20;;;;;;4985801;28;20101;-87
2022/01/06 11:36:30;;;;;;;8.57;2.30;;;6.30;79.00;;;;;;4991223;28;20104;-84
2022/01/06 11:38:57;;;;;;;11.32;2.90;;;6.40;79.10;;;;;;4984182;28;20018;-84
2022/01/06 11:41:44;;;;;;;8.93;2.65;;;6.40;79.10;;;;;;4983115;28;20036;-86
2022/01/06 11:44:46;;;;;;;5.82;2.20;;;6.40;79.10;;;;;;4986077;28;20062;-83
2022/01/06 11:47:12;;;;;;;7.07;2.35;;;6.50;79.10;;;;;;4979732;28;20076;-82
2022/01/06 11:49:44;;;;;;;5.95;2.13;;;6.50;79.00;;;;;;4984187;28;20465;-82
2022/01/06 11:52:16;;;;;;;8.88;2.38;;;6.50;78.90;;;;;;4985881;28;20049;-83
2022/01/06 11:54:54;;;;;;;6.35;2.67;;;6.60;79.00;;;;;;4979967;28;20018;-82
2022/01/06 11:57:27;;;;;;;7.43;2.70;;;6.60;79.00;;;;;;4983723;28;20112;-82
2022/01/06 11:59:53;;;;;;;3.95;1.70;;;6.70;79.00;;;;;;4983534;28;20041;-82
2022/01/06 12:02:22;;;;;;;8.20;2.33;;;6.80;79.00;;;;;;4995135;28;20026;-83
2022/01/06 12:04:59;;;;;;;6.43;2.03;;;6.70;78.80;;;;;;4996266;28;20030;-82
2022/01/06 12:07:26;;;;;;;5.72;2.03;;;6.80;78.80;;;;;;4996380;28;20030;-81
2022/01/06 12:10:06;;;;;;;11.43;2.63;;;6.80;78.70;;;;;;4999130;28;20076;-83
2022/01/06 12:12:38;;;;;;;5.65;1.65;;;6.90;78.80;;;;;;4990422;28;20092;-83
2022/01/06 12:15:15;;;;;;;5.63;2.00;;;7.00;78.70;;;;;;4996968;28;20032;-82
2022/01/06 12:17:53;;;;;;;6.13;2.15;;;7.00;78.50;;;;;;4994319;28;20041;-83
2022/01/06 12:20:27;;;;;;;6.13;2.00;;;7.00;78.40;;;;;;4992746;28;20389;-84
2022/01/06 12:22:54;;;;;;;9.30;2.28;;;7.10;78.40;;;;;;4996079;28;20018;-81
2022/01/06 12:25:24;;;;;;;4.68;2.00;;;7.00;78.20;;;;;;4997129;28;20453;-84
2022/01/06 12:27:53;;;;;;;7.50;2.22;;;7.00;78.30;;;;;;4998472;28;20038;-82
2022/01/06 12:30:20;;;;;;;6.47;2.38;;;7.10;78.40;;;;;;4991296;28;20481;-84
2022/01/06 12:32:55;;;;;;;8.77;2.80;;;7.20;78.30;;;;;;4991633;28;20027;-82
2022/01/06 12:35:32;;;;;;;7.43;2.30;;;7.30;78.20;;;;;;4990331;28;20113;-81
2022/01/06 12:37:58;;;;;;;8.07;2.75;;;7.40;78.00;;;;;;4990555;28;20113;-82
2022/01/06 12:40:34;;;;;;;5.38;2.10;;;7.40;77.80;;;;;;4995223;28;20021;-80
2022/01/06 12:43:19;;;;;;;6.93;2.50;;;7.40;77.60;;;;;;4987244;28;20104;-80
2022/01/06 12:45:45;;;;;;;8.75;2.38;;;7.40;77.50;;;;;;4999078;28;20015;-78
2022/01/06 12:48:12;;;;;;;8.10;2.60;;;7.40;77.40;;;;;;4987164;28;20045;-78
2022/01/06 12:50:47;;;;;;;7.03;2.10;;;7.50;77.40;;;;;;4993852;28;20034;-79
2022/01/06 12:53:29;;;;;;;8.70;2.40;;;7.50;77.20;;;;;;4987128;28;20030;-85
2022/01/06 12:55:56;;;;;;;8.77;2.63;;;7.60;77.30;;;;;;4987423;28;20014;-81
2022/01/06 12:58:30;;;;;;;7.82;2.38;;;7.60;77.10;;;;;;4988606;28;20405;-78
2022/01/06 13:01:02;;;;;;;8.73;2.60;;;7.60;77.00;;;;;;4992407;28;20026;-90
2022/01/06 13:03:39;;;;;;;6.40;2.33;;;7.60;76.70;;;;;;4983601;28;20034;-88
2022/01/06 13:06:07;;;;;;;7.88;2.60;;;7.60;76.70;;;;;;4989917;28;20372;-85